Time;durP1;ratioP1;P1;durP2;ratioP2;P2;SDS_P1;SDS_P2;PMS_P1;PMS_P2;Temp;Humidity;BMP_temperature;BMP_pressure;BME280_temperature;BME280_humidity;BME280_pressure;Samples;Min_cycle;Max_cycle;Signal;HPM_P1;HPM_P2
2021/09/26 00:00:10;;;;;;;21.63;12.53;;;14.70;99.90;;;;;;4435949;28;660142;-69
2021/09/26 00:02:58;;;;;;;22.87;11.80;;;14.70;99.90;;;;;;4434743;28;659956;-70
2021/09/26 00:05:45;;;;;;;22.87;13.60;;;14.70;99.90;;;;;;4441075;28;661102;-70
2021/09/26 00:08:34;;;;;;;23.08;13.75;;;14.70;99.90;;;;;;4418973;28;659516;-69
2021/09/26 00:11:22;;;;;;;19.73;12.60;;;14.70;99.90;;;;;;4438609;28;659990;-70
2021/09/26 00:14:09;;;;;;;23.37;11.97;;;14.70;99.90;;;;;;4411581;28;660787;-70
2021/09/26 00:16:58;;;;;;;21.73;11.93;;;14.70;99.90;;;;;;4444792;28;660225;-70
2021/09/26 00:19:45;;;;;;;20.37;12.77;;;14.70;99.90;;;;;;4419692;28;660464;-70
2021/09/26 00:22:33;;;;;;;24.35;13.45;;;14.70;99.90;;;;;;4419735;28;659554;-69
2021/09/26 00:25:22;;;;;;;24.60;14.30;;;14.70;99.90;;;;;;4437995;28;660495;-70
2021/09/26 00:28:09;;;;;;;23.00;13.40;;;14.70;99.90;;;;;;4420336;28;660292;-69
2021/09/26 00:30:57;;;;;;;23.33;13.07;;;14.70;99.90;;;;;;4448385;28;659284;-70
2021/09/26 00:33:44;;;;;;;20.53;13.27;;;14.70;99.90;;;;;;4416231;28;660464;-69
2021/09/26 00:36:32;;;;;;;19.30;12.53;;;14.70;99.90;;;;;;4442699;28;659449;-70
2021/09/26 00:39:19;;;;;;;19.50;12.60;;;14.70;99.90;;;;;;4421052;28;661219;-70
2021/09/26 00:42:09;;;;;;;19.00;12.80;;;14.70;99.90;;;;;;4446303;28;659708;-70
2021/09/26 00:44:57;;;;;;;21.43;11.83;;;14.70;99.90;;;;;;4420240;28;660005;-70
2021/09/26 00:47:45;;;;;;;19.30;11.80;;;14.70;99.90;;;;;;4423951;28;660850;-70
2021/09/26 00:50:33;;;;;;;19.90;12.30;;;14.70;99.90;;;;;;4413815;28;659911;-70
2021/09/26 00:53:20;;;;;;;19.80;11.70;;;14.70;99.90;;;;;;4437817;28;661062;-70
2021/09/26 00:56:08;;;;;;;17.33;11.20;;;14.60;99.90;;;;;;4425746;28;660690;-70
2021/09/26 00:58:57;;;;;;;26.67;11.10;;;14.70;99.90;;;;;;4448232;28;660845;-70
2021/09/26 01:01:45;;;;;;;17.47;10.70;;;14.70;99.90;;;;;;4423842;28;661099;-69
2021/09/26 01:04:32;;;;;;;25.50;10.40;;;14.60;99.90;;;;;;4437810;28;659437;-69
2021/09/26 01:07:24;;;;;;;19.73;10.30;;;14.60;99.90;;;;;;4419878;28;659701;-70
2021/09/26 01:10:16;;;;;;;18.93;10.83;;;14.60;99.90;;;;;;4417602;28;660253;-70
2021/09/26 01:13:07;;;;;;;20.23;10.03;;;14.60;99.90;;;;;;4400033;28;659736;-69
2021/09/26 01:16:05;;;;;;;21.03;10.67;;;14.60;99.90;;;;;;4423086;28;660600;-69
2021/09/26 01:18:55;;;;;;;16.77;10.73;;;14.60;99.90;;;;;;4396123;28;659502;-70
2021/09/26 01:21:45;;;;;;;17.70;11.20;;;14.60;99.90;;;;;;4419336;28;659674;-69
2021/09/26 01:24:57;;;;;;;15.37;10.30;;;14.50;99.90;;;;;;4415785;28;660007;-70
2021/09/26 01:28:04;;;;;;;18.23;10.97;;;14.50;99.90;;;;;;4393614;28;661054;-70
2021/09/26 01:30:54;;;;;;;17.50;10.30;;;14.40;99.90;;;;;;4416094;28;660870;-70
2021/09/26 01:33:43;;;;;;;13.77;9.63;;;14.40;99.90;;;;;;4417621;28;659847;-70
2021/09/26 01:36:36;;;;;;;16.87;9.97;;;14.30;99.90;;;;;;4422296;28;659707;-69
2021/09/26 01:39:25;;;;;;;15.43;9.63;;;14.30;99.90;;;;;;4398000;28;661581;-69
2021/09/26 01:42:17;;;;;;;18.00;10.17;;;14.20;99.90;;;;;;4445626;28;658450;-70
2021/09/26 01:45:07;;;;;;;15.83;9.30;;;14.10;99.90;;;;;;4425530;28;659790;-70
2021/09/26 01:47:59;;;;;;;13.30;9.53;;;14.00;99.90;;;;;;4428332;28;659349;-70
2021/09/26 01:50:48;;;;;;;15.10;9.23;;;14.00;99.90;;;;;;4421774;28;659328;-70
2021/09/26 01:53:37;;;;;;;15.30;9.83;;;13.80;99.90;;;;;;4420984;28;659788;-69
2021/09/26 01:56:27;;;;;;;15.97;10.00;;;13.70;99.90;;;;;;4419916;28;659299;-70
2021/09/26 01:59:16;;;;;;;13.07;9.60;;;13.70;99.90;;;;;;4425721;28;660845;-70
2021/09/26 02:02:03;;;;;;;21.70;9.83;;;13.60;99.90;;;;;;4427444;28;658494;-70
2021/09/26 02:04:53;;;;;;;12.93;9.27;;;13.50;99.90;;;;;;4446322;28;659844;-69
2021/09/26 02:07:42;;;;;;;14.47;9.00;;;13.50;99.90;;;;;;4420922;28;659328;-70
2021/09/26 02:10:30;;;;;;;13.53;9.53;;;13.40;99.90;;;;;;4418131;28;659197;-69
2021/09/26 02:13:18;;;;;;;15.27;8.90;;;13.30;99.90;;;;;;4434322;28;658846;-69
2021/09/26 02:16:06;;;;;;;14.03;9.23;;;13.20;99.90;;;;;;4446977;28;659983;-69
2021/09/26 02:18:53;;;;;;;11.33;9.23;;;13.20;99.90;;;;;;4420543;28;658788;-69
2021/09/26 02:21:42;;;;;;;21.53;9.93;;;13.00;99.90;;;;;;4443463;28;660128;-70
2021/09/26 02:24:30;;;;;;;15.23;9.17;;;12.90;99.90;;;;;;4423869;28;659736;-69
2021/09/26 02:27:20;;;;;;;13.77;9.53;;;12.90;99.90;;;;;;4445542;28;659366;-70
2021/09/26 02:30:09;;;;;;;14.47;9.27;;;12.80;99.90;;;;;;4420441;28;658945;-69
2021/09/26 02:32:58;;;;;;;14.73;9.00;;;12.80;99.90;;;;;;4450129;28;658834;-70
2021/09/26 02:35:47;;;;;;;15.50;9.30;;;12.70;99.90;;;;;;4422835;28;659416;-70
2021/09/26 02:38:37;;;;;;;12.77;8.83;;;12.60;99.90;;;;;;4423753;28;658789;-69
2021/09/26 02:41:32;;;;;;;13.73;9.33;;;12.60;99.90;;;;;;4422154;28;659773;-71
2021/09/26 02:44:24;;;;;;;17.90;9.60;;;12.50;99.90;;;;;;4403764;28;659021;-70
2021/09/26 02:47:17;;;;;;;15.40;10.17;;;12.50;99.90;;;;;;4423065;28;658475;-70
2021/09/26 02:50:06;;;;;;;14.40;10.00;;;12.50;99.90;;;;;;4398750;28;660508;-70
2021/09/26 02:52:55;;;;;;;17.23;10.13;;;12.40;99.90;;;;;;4424775;28;659426;-70
2021/09/26 02:55:47;;;;;;;16.60;10.60;;;12.40;99.90;;;;;;4436023;28;659568;-70
2021/09/26 02:58:38;;;;;;;18.63;10.20;;;12.40;99.90;;;;;;4421156;28;660496;-70
2021/09/26 03:01:28;;;;;;;11.10;9.23;;;12.40;99.90;;;;;;4419713;28;660634;-70
2021/09/26 03:04:17;;;;;;;21.07;10.07;;;12.30;99.90;;;;;;4417272;28;659300;-69
2021/09/26 03:07:06;;;;;;;20.37;9.93;;;12.30;99.90;;;;;;4425858;28;660548;-70
2021/09/26 03:09:54;;;;;;;15.17;8.90;;;12.20;99.90;;;;;;4424797;28;658888;-70
2021/09/26 03:12:45;;;;;;;14.20;8.67;;;12.20;99.90;;;;;;4443478;28;658711;-70
2021/09/26 03:15:34;;;;;;;13.27;9.00;;;12.20;99.90;;;;;;4413942;28;658564;-70
2021/09/26 03:18:22;;;;;;;17.40;9.30;;;12.10;99.90;;;;;;4435175;28;659213;-70
2021/09/26 03:21:12;;;;;;;14.57;9.43;;;12.10;99.90;;;;;;4425195;28;660997;-70
2021/09/26 03:24:00;;;;;;;14.93;8.40;;;12.10;99.90;;;;;;4422694;28;660203;-70
2021/09/26 03:26:49;;;;;;;15.30;9.77;;;12.00;99.90;;;;;;4417474;28;658599;-70
2021/09/26 03:29:39;;;;;;;23.97;8.87;;;12.00;99.90;;;;;;4435242;28;659518;-70
2021/09/26 03:32:28;;;;;;;15.40;9.17;;;12.10;99.90;;;;;;4417873;28;659006;-70
2021/09/26 03:35:16;;;;;;;13.33;9.00;;;12.10;99.90;;;;;;4421987;28;658968;-70
2021/09/26 03:38:05;;;;;;;13.30;9.50;;;12.10;99.90;;;;;;4423917;28;659184;-69
2021/09/26 03:40:54;;;;;;;14.30;8.80;;;12.10;99.90;;;;;;4430493;28;658711;-70
2021/09/26 03:43:44;;;;;;;13.33;9.03;;;12.10;99.90;;;;;;4437990;28;659048;-70
2021/09/26 03:46:33;;;;;;;14.57;8.83;;;12.10;99.90;;;;;;4418776;28;659780;-70
2021/09/26 03:49:21;;;;;;;16.23;9.20;;;12.10;99.90;;;;;;4422149;28;658863;-70
2021/09/26 03:52:10;;;;;;;18.47;9.60;;;12.20;99.90;;;;;;4426634;28;659227;-70
2021/09/26 03:54:59;;;;;;;12.17;8.20;;;12.20;99.90;;;;;;4428746;28;658856;-70
2021/09/26 03:57:48;;;;;;;16.60;8.40;;;12.30;99.90;;;;;;4444376;28;659066;-70
2021/09/26 04:00:36;;;;;;;13.87;8.43;;;12.30;99.90;;;;;;4418803;28;658888;-70
2021/09/26 04:03:30;;;;;;;15.10;7.97;;;12.40;99.90;;;;;;4420828;28;659874;-70
2021/09/26 04:06:20;;;;;;;14.47;7.77;;;12.40;99.90;;;;;;4403512;28;658903;-70
2021/09/26 04:09:08;;;;;;;13.37;7.47;;;12.40;99.90;;;;;;4442861;28;658303;-70
2021/09/26 04:11:56;;;;;;;16.23;8.03;;;12.40;99.90;;;;;;4449205;28;659798;-70
2021/09/26 04:14:44;;;;;;;18.03;8.23;;;12.40;99.90;;;;;;4421403;28;658906;-70
2021/09/26 04:17:32;;;;;;;17.20;7.87;;;12.30;99.90;;;;;;4448700;28;658532;-70
2021/09/26 04:20:24;;;;;;;15.10;7.73;;;12.30;99.90;;;;;;4422175;28;659119;-70
2021/09/26 04:23:12;;;;;;;12.07;7.53;;;12.30;99.90;;;;;;4421382;28;660398;-70
2021/09/26 04:26:01;;;;;;;12.27;7.60;;;12.40;99.90;;;;;;4426894;28;659653;-70
2021/09/26 04:28:48;;;;;;;12.90;7.80;;;12.40;99.90;;;;;;4416637;28;658725;-70
2021/09/26 04:31:36;;;;;;;10.80;7.57;;;12.40;99.90;;;;;;4441695;28;659055;-70
2021/09/26 04:34:26;;;;;;;11.40;7.57;;;12.40;99.90;;;;;;4419244;28;659112;-70
2021/09/26 04:37:15;;;;;;;12.97;7.73;;;12.40;99.90;;;;;;4422621;28;658857;-70
2021/09/26 04:40:37;;;;;;;12.80;7.17;;;12.50;99.90;;;;;;4425167;28;658953;-70
2021/09/26 04:43:43;;;;;;;14.43;7.33;;;12.50;99.90;;;;;;4421478;28;659271;-70
2021/09/26 04:46:31;;;;;;;13.03;7.23;;;12.60;99.90;;;;;;4418378;28;659260;-70
2021/09/26 04:49:19;;;;;;;15.80;7.13;;;12.60;99.90;;;;;;4421670;28;658487;-69
2021/09/26 04:52:07;;;;;;;10.87;7.07;;;12.70;99.90;;;;;;4439575;28;658934;-70
2021/09/26 04:54:56;;;;;;;10.90;7.17;;;12.70;99.90;;;;;;4420846;28;660973;-70
2021/09/26 04:57:44;;;;;;;11.40;7.68;;;12.70;99.90;;;;;;4422582;28;658689;-70
2021/09/26 05:00:31;;;;;;;13.70;7.90;;;12.80;99.90;;;;;;4439924;28;659478;-70
2021/09/26 05:03:21;;;;;;;12.83;7.30;;;12.80;99.90;;;;;;4419737;28;658570;-70
2021/09/26 05:06:09;;;;;;;13.60;7.40;;;12.90;99.90;;;;;;4417966;28;659324;-70
2021/09/26 05:08:56;;;;;;;11.53;7.33;;;12.90;99.90;;;;;;4441806;28;660842;-70
2021/09/26 05:11:45;;;;;;;12.83;7.37;;;13.00;99.90;;;;;;4422130;28;658938;-70
2021/09/26 05:14:33;;;;;;;14.23;7.97;;;13.10;99.90;;;;;;4423218;28;658539;-70
2021/09/26 05:17:21;;;;;;;14.27;6.80;;;13.10;99.90;;;;;;4443516;28;659448;-70
2021/09/26 05:20:09;;;;;;;12.93;7.07;;;13.20;99.90;;;;;;4418610;28;658826;-70
2021/09/26 05:22:58;;;;;;;15.53;7.20;;;13.20;99.90;;;;;;4442729;28;658797;-70
2021/09/26 05:25:46;;;;;;;12.17;7.30;;;13.30;99.90;;;;;;4415986;28;659221;-70
2021/09/26 05:28:34;;;;;;;8.90;7.17;;;13.40;99.90;;;;;;4425081;28;659383;-70
2021/09/26 05:31:22;;;;;;;13.43;6.97;;;13.50;99.90;;;;;;4445434;28;657547;-70
2021/09/26 05:34:10;;;;;;;13.00;7.87;;;13.50;99.90;;;;;;4412734;28;659999;-69
2021/09/26 05:36:58;;;;;;;9.47;7.03;;;13.60;99.90;;;;;;4437949;28;658708;-69
2021/09/26 05:39:45;;;;;;;14.13;6.93;;;13.60;99.90;;;;;;4444482;28;657657;-69
2021/09/26 05:42:33;;;;;;;11.27;6.97;;;13.70;99.90;;;;;;4418196;28;658655;-69
2021/09/26 05:45:22;;;;;;;13.17;8.00;;;13.70;99.90;;;;;;4443423;28;659732;-69
2021/09/26 05:48:10;;;;;;;9.93;7.80;;;13.80;99.90;;;;;;4420032;28;659254;-69
2021/09/26 05:50:58;;;;;;;12.63;7.03;;;13.80;99.90;;;;;;4432318;28;658697;-69
2021/09/26 05:53:45;;;;;;;10.80;7.33;;;13.90;99.90;;;;;;4447735;28;660688;-69
2021/09/26 05:56:33;;;;;;;9.87;6.90;;;13.90;99.90;;;;;;4425159;28;659249;-69
2021/09/26 05:59:20;;;;;;;12.40;7.20;;;13.90;99.90;;;;;;4453044;28;658080;-69
2021/09/26 06:02:11;;;;;;;9.33;6.97;;;14.10;99.90;;;;;;4424015;28;658982;-69
2021/09/26 06:05:01;;;;;;;15.73;7.90;;;14.10;99.90;;;;;;4427104;28;657522;-69
2021/09/26 06:07:49;;;;;;;11.13;7.50;;;14.20;99.90;;;;;;4410995;28;659126;-68
2021/09/26 06:10:36;;;;;;;10.57;6.63;;;14.30;99.90;;;;;;4436903;28;659074;-69
2021/09/26 06:13:24;;;;;;;9.43;7.07;;;14.30;99.90;;;;;;4417962;28;659087;-69
2021/09/26 06:16:11;;;;;;;13.23;7.90;;;14.40;99.90;;;;;;4443233;28;657995;-69
2021/09/26 06:19:00;;;;;;;16.05;8.05;;;14.40;99.90;;;;;;4427137;28;658672;-69
2021/09/26 06:21:48;;;;;;;20.38;10.73;;;14.50;99.90;;;;;;4426287;28;658528;-69
2021/09/26 06:24:35;;;;;;;17.00;10.60;;;14.70;99.90;;;;;;4441561;28;661034;-69
2021/09/26 06:27:23;;;;;;;15.07;8.97;;;14.90;99.90;;;;;;4421044;28;659659;-69
2021/09/26 06:30:11;;;;;;;17.50;10.90;;;15.10;99.90;;;;;;4438703;28;659774;-69
2021/09/26 06:32:59;;;;;;;18.47;11.23;;;15.30;99.90;;;;;;4420582;28;660325;-69
2021/09/26 06:35:48;;;;;;;14.47;9.20;;;15.50;99.90;;;;;;4439439;28;659902;-69
2021/09/26 06:38:36;;;;;;;13.97;9.50;;;15.70;99.90;;;;;;4423786;28;659548;-69
2021/09/26 06:41:23;;;;;;;13.60;9.77;;;15.80;99.90;;;;;;4423708;28;658735;-69
2021/09/26 06:44:11;;;;;;;20.07;11.23;;;16.10;99.90;;;;;;4444496;28;658761;-69
2021/09/26 06:46:58;;;;;;;15.17;10.53;;;16.20;99.90;;;;;;4425077;28;659720;-69
2021/09/26 06:49:46;;;;;;;13.90;9.87;;;16.40;99.90;;;;;;4437089;28;660019;-69
2021/09/26 06:52:35;;;;;;;17.30;9.90;;;16.60;99.90;;;;;;4420387;28;658752;-69
2021/09/26 06:55:23;;;;;;;15.27;10.20;;;16.70;99.90;;;;;;4425853;28;658761;-69
2021/09/26 06:58:10;;;;;;;16.80;10.80;;;16.80;99.90;;;;;;4440127;28;660702;-69
2021/09/26 07:00:58;;;;;;;18.70;11.50;;;17.00;99.90;;;;;;4411195;28;660633;-69
2021/09/26 07:03:45;;;;;;;18.50;10.93;;;17.10;99.90;;;;;;4430706;28;660909;-69
2021/09/26 07:06:33;;;;;;;20.13;11.03;;;17.30;99.90;;;;;;4417144;28;660120;-69
2021/09/26 07:09:22;;;;;;;20.30;10.80;;;17.30;99.90;;;;;;4431143;28;660472;-69
2021/09/26 07:12:10;;;;;;;15.57;11.03;;;17.40;99.90;;;;;;4410360;28;660555;-70
2021/09/26 07:15:01;;;;;;;20.80;11.27;;;17.60;99.90;;;;;;4416570;28;660056;-70
2021/09/26 07:17:48;;;;;;;19.93;10.67;;;17.60;99.90;;;;;;4413230;28;659829;-71
2021/09/26 07:20:36;;;;;;;18.33;10.43;;;17.70;99.90;;;;;;4441539;28;660059;-71
2021/09/26 07:23:23;;;;;;;17.23;10.33;;;17.70;99.90;;;;;;4422281;28;660060;-70
2021/09/26 07:26:13;;;;;;;18.30;10.63;;;17.80;99.90;;;;;;4444649;28;660861;-70
2021/09/26 07:29:00;;;;;;;13.93;10.57;;;18.00;99.90;;;;;;4423213;28;660639;-70
2021/09/26 07:31:48;;;;;;;16.63;9.93;;;18.20;99.00;;;;;;4426595;28;659427;-70
2021/09/26 07:34:35;;;;;;;15.67;9.87;;;18.40;92.70;;;;;;4451397;28;659119;-70
2021/09/26 07:37:23;;;;;;;16.20;10.33;;;18.50;73.90;;;;;;4428126;28;658661;-70
2021/09/26 07:40:11;;;;;;;17.13;9.67;;;18.70;99.90;;;;;;4449569;28;661040;-70
2021/09/26 07:43:00;;;;;;;15.87;9.90;;;18.90;99.90;;;;;;4427822;28;658825;-70
2021/09/26 07:45:48;;;;;;;16.23;9.93;;;19.00;99.90;;;;;;4440384;28;658924;-70
2021/09/26 07:48:35;;;;;;;19.60;11.23;;;19.10;99.90;;;;;;4446362;28;658514;-70
2021/09/26 07:51:23;;;;;;;18.83;10.53;;;19.30;99.90;;;;;;4426438;28;659418;-70
2021/09/26 07:54:11;;;;;;;16.00;8.83;;;19.40;99.90;;;;;;4445348;28;660922;-70
2021/09/26 07:56:58;;;;;;;14.83;9.47;;;19.60;99.90;;;;;;4417837;28;658776;-70
2021/09/26 07:59:47;;;;;;;16.40;8.60;;;19.70;99.90;;;;;;4432682;28;659539;-70
2021/09/26 08:02:35;;;;;;;14.87;8.57;;;19.90;99.90;;;;;;4409018;28;658848;-70
2021/09/26 08:05:23;;;;;;;14.43;8.43;;;20.10;99.90;;;;;;4421818;28;658691;-70
2021/09/26 08:08:10;;;;;;;14.53;8.30;;;20.30;99.90;;;;;;4429274;28;659743;-70
2021/09/26 08:10:58;;;;;;;14.27;7.80;;;20.40;99.90;;;;;;4410530;28;658715;-70
2021/09/26 08:13:46;;;;;;;14.67;7.97;;;20.50;99.90;;;;;;4429738;28;659336;-70
2021/09/26 08:16:35;;;;;;;14.77;7.67;;;20.60;99.90;;;;;;4410718;28;658818;-70
2021/09/26 08:19:23;;;;;;;13.73;7.40;;;20.70;99.90;;;;;;4410072;28;658429;-70
2021/09/26 08:22:11;;;;;;;12.40;7.37;;;20.90;99.90;;;;;;4428927;28;659231;-70
2021/09/26 08:25:00;;;;;;;14.57;7.37;;;21.00;99.90;;;;;;4410104;28;658772;-71
2021/09/26 08:27:48;;;;;;;12.43;7.50;;;21.20;99.90;;;;;;4418556;28;659172;-70
2021/09/26 08:30:35;;;;;;;10.87;6.73;;;21.30;99.90;;;;;;4432683;28;659129;-71
2021/09/26 08:33:24;;;;;;;11.93;6.83;;;21.60;99.90;;;;;;4410371;28;659463;-70
2021/09/26 08:36:12;;;;;;;11.20;6.77;;;21.90;99.90;;;;;;4428902;28;658402;-70
2021/09/26 08:38:59;;;;;;;13.30;6.50;;;22.10;99.90;;;;;;4406067;28;659820;-70
2021/09/26 08:41:50;;;;;;;13.23;6.70;;;22.20;99.90;;;;;;4428454;28;659042;-70
2021/09/26 08:44:38;;;;;;;9.87;6.47;;;22.50;99.90;;;;;;4387157;28;658598;-70
2021/09/26 08:47:26;;;;;;;11.93;6.20;;;22.50;99.90;;;;;;4432615;28;658328;-70
2021/09/26 08:50:16;;;;;;;11.57;6.47;;;22.70;99.90;;;;;;4410943;28;658275;-70
2021/09/26 08:53:04;;;;;;;10.23;6.00;;;22.90;99.90;;;;;;4412922;28;658492;-70
2021/09/26 08:55:52;;;;;;;11.87;6.23;;;23.10;99.90;;;;;;4432101;28;659182;-71
2021/09/26 08:58:40;;;;;;;8.48;5.78;;;23.20;99.90;;;;;;4402645;28;660004;-71
2021/09/26 09:01:28;;;;;;;9.75;5.72;;;23.20;99.90;;;;;;4427856;28;657411;-70
2021/09/26 09:04:16;;;;;;;10.20;5.65;;;23.30;99.90;;;;;;4432620;28;658756;-70
2021/09/26 09:07:06;;;;;;;11.50;6.33;;;23.50;99.90;;;;;;4412996;28;658674;-70
2021/09/26 09:09:54;;;;;;;10.52;5.82;;;23.60;99.90;;;;;;4413163;28;658795;-70
2021/09/26 09:12:42;;;;;;;13.20;6.40;;;23.80;99.90;;;;;;4431318;28;658800;-70
2021/09/26 09:15:29;;;;;;;11.80;6.55;;;24.00;99.90;;;;;;4411929;28;659207;-70
2021/09/26 09:18:17;;;;;;;9.63;5.90;;;24.20;99.90;;;;;;4432325;28;658799;-70
2021/09/26 09:21:19;;;;;;;10.20;5.95;;;24.10;99.90;;;;;;4410051;28;659067;-70
2021/09/26 09:24:23;;;;;;;13.98;6.50;;;24.20;99.90;;;;;;4408820;28;658766;-70
2021/09/26 09:27:10;;;;;;;9.80;5.82;;;24.30;99.90;;;;;;4389657;28;659861;-70
2021/09/26 09:29:58;;;;;;;11.77;6.30;;;24.50;99.90;;;;;;4416727;28;657310;-70
2021/09/26 09:32:55;;;;;;;10.43;5.95;;;24.60;99.90;;;;;;4435770;28;659836;-70
2021/09/26 09:35:45;;;;;;;13.45;6.90;;;24.60;99.90;;;;;;4400814;28;658592;-69
2021/09/26 09:38:38;;;;;;;14.13;6.82;;;24.80;99.90;;;;;;4423703;28;658927;-69
2021/09/26 09:41:34;;;;;;;9.60;6.15;;;24.90;99.90;;;;;;4408622;28;658985;-69
2021/09/26 09:44:26;;;;;;;14.27;6.30;;;25.10;99.90;;;;;;4410083;28;657828;-69
2021/09/26 09:47:14;;;;;;;10.70;6.40;;;25.30;99.90;;;;;;4385341;28;659025;-69
2021/09/26 09:50:01;;;;;;;7.53;5.78;;;25.20;99.90;;;;;;4430503;28;658764;-69
2021/09/26 09:52:54;;;;;;;12.07;6.65;;;25.00;99.90;;;;;;4412012;28;657768;-70
2021/09/26 09:55:43;;;;;;;12.55;6.68;;;25.10;99.90;;;;;;4408046;28;658979;-70
2021/09/26 09:58:37;;;;;;;10.80;6.07;;;25.40;99.90;;;;;;4408021;28;658979;-69
2021/09/26 10:01:26;;;;;;;12.85;6.55;;;25.60;99.90;;;;;;4411785;28;658638;-69
2021/09/26 10:04:14;;;;;;;8.82;6.05;;;25.80;99.90;;;;;;4411436;28;658853;-70
2021/09/26 10:07:02;;;;;;;14.77;6.45;;;25.80;99.90;;;;;;4426886;28;657607;-69
2021/09/26 10:09:49;;;;;;;11.88;6.68;;;25.80;99.90;;;;;;4406863;28;659051;-69
2021/09/26 10:12:37;;;;;;;10.15;5.88;;;25.80;99.90;;;;;;4429531;28;659293;-69
2021/09/26 10:15:33;;;;;;;7.85;5.32;;;25.80;99.90;;;;;;4407619;28;660082;-69
2021/09/26 10:18:21;;;;;;;10.77;6.00;;;26.10;99.90;;;;;;4408718;28;658066;-69
2021/09/26 10:21:08;;;;;;;13.52;5.80;;;26.20;99.90;;;;;;4411418;28;658854;-70
2021/09/26 10:23:56;;;;;;;8.73;5.90;;;26.40;99.90;;;;;;4434126;28;659279;-69
2021/09/26 10:26:44;;;;;;;12.13;5.30;;;26.70;99.90;;;;;;4412187;28;657866;-69
2021/09/26 10:29:32;;;;;;;7.95;4.97;;;26.60;99.90;;;;;;4429527;28;659015;-69
2021/09/26 10:32:21;;;;;;;9.10;5.63;;;26.80;99.90;;;;;;4411902;28;658676;-69
2021/09/26 10:35:09;;;;;;;11.17;5.87;;;27.00;99.90;;;;;;4411824;28;657549;-69
2021/09/26 10:37:57;;;;;;;8.98;5.07;;;27.20;99.90;;;;;;4429673;28;658494;-69
2021/09/26 10:40:44;;;;;;;8.50;5.32;;;27.40;99.90;;;;;;4407745;28;658264;-69
2021/09/26 10:43:32;;;;;;;8.80;5.45;;;27.50;99.90;;;;;;4430509;28;657909;-69
2021/09/26 10:46:21;;;;;;;10.20;5.30;;;27.70;99.90;;;;;;4407841;28;658076;-70
2021/09/26 10:49:12;;;;;;;7.60;4.97;;;27.70;99.90;;;;;;4410514;28;658709;-69
2021/09/26 10:52:00;;;;;;;6.88;4.85;;;27.80;99.90;;;;;;4411787;28;657371;-69
2021/09/26 10:54:48;;;;;;;9.30;4.90;;;28.10;99.90;;;;;;4424115;28;657289;-69
2021/09/26 10:57:35;;;;;;;8.60;4.95;;;28.20;99.90;;;;;;4430631;28;658475;-69
2021/09/26 11:00:30;;;;;;;6.13;4.20;;;28.00;99.90;;;;;;4411578;28;657957;-69
2021/09/26 11:03:19;;;;;;;6.93;4.97;;;28.20;99.90;;;;;;4397914;28;658275;-69
2021/09/26 11:06:37;;;;;;;10.10;4.47;;;28.00;99.60;;;;;;4430430;28;657914;-69
2021/09/26 11:09:24;;;;;;;9.07;4.60;;;28.40;99.90;;;;;;4296936;28;658917;-69
2021/09/26 11:12:12;;;;;;;8.13;4.47;;;28.50;98.40;;;;;;4343039;28;657406;-69
2021/09/26 11:15:02;;;;;;;8.43;4.43;;;28.10;97.70;;;;;;4320435;28;659066;-69
2021/09/26 11:17:52;;;;;;;8.03;5.00;;;28.30;98.20;;;;;;4321049;28;658621;-69
2021/09/26 11:20:43;;;;;;;6.63;4.72;;;28.40;96.80;;;;;;4318545;28;658528;-69
2021/09/26 11:23:35;;;;;;;8.40;4.43;;;28.10;96.80;;;;;;4320565;28;658372;-69
2021/09/26 11:26:23;;;;;;;6.38;4.00;;;27.80;96.50;;;;;;4312855;28;657752;-69
2021/09/26 11:29:10;;;;;;;9.25;4.50;;;27.80;95.80;;;;;;4343076;28;658213;-69
2021/09/26 11:31:58;;;;;;;9.48;5.03;;;27.80;96.80;;;;;;4324607;28;657686;-69
2021/09/26 11:34:48;;;;;;;7.13;4.93;;;27.80;96.40;;;;;;4342711;28;658415;-69
2021/09/26 11:37:50;;;;;;;6.70;4.78;;;28.00;96.90;;;;;;4324494;28;658344;-69
2021/09/26 11:41:09;;;;;;;5.90;4.28;;;28.20;94.50;;;;;;4301842;28;657400;-69
2021/09/26 11:44:01;;;;;;;5.68;4.30;;;28.50;93.70;;;;;;4282569;29;657546;-69
2021/09/26 11:46:48;;;;;;;7.72;4.60;;;28.50;95.20;;;;;;4266233;29;658441;-69
2021/09/26 11:49:38;;;;;;;6.32;4.20;;;29.00;93.20;;;;;;4373345;28;657419;-69
2021/09/26 11:52:25;;;;;;;9.70;4.65;;;29.10;93.00;;;;;;4354880;28;658417;-69
2021/09/26 11:55:16;;;;;;;7.65;4.78;;;28.90;92.60;;;;;;4357772;28;657994;-69
2021/09/26 11:58:06;;;;;;;11.03;4.43;;;28.90;91.60;;;;;;4356281;28;657839;-69
2021/09/26 12:00:54;;;;;;;5.53;4.03;;;28.70;93.20;;;;;;4356584;28;658370;-69
2021/09/26 12:03:42;;;;;;;7.18;4.53;;;28.70;91.30;;;;;;4376467;28;657791;-69
2021/09/26 12:06:29;;;;;;;7.25;4.50;;;29.30;91.00;;;;;;4353810;28;658541;-69
2021/09/26 12:09:33;;;;;;;6.18;4.68;;;29.50;90.60;;;;;;4376353;28;657902;-69
2021/09/26 12:12:22;;;;;;;8.95;5.50;;;30.00;90.20;;;;;;4353562;28;657464;-69
2021/09/26 12:15:13;;;;;;;8.07;5.43;;;29.70;89.50;;;;;;4357880;28;657620;-70
2021/09/26 12:18:01;;;;;;;9.13;5.30;;;29.70;90.80;;;;;;4349922;28;658224;-69
2021/09/26 12:20:49;;;;;;;10.57;5.32;;;29.80;86.70;;;;;;4371854;28;657430;-69
2021/09/26 12:23:51;;;;;;;7.15;5.05;;;30.20;85.70;;;;;;4420273;28;658301;-69
2021/09/26 12:26:40;;;;;;;8.20;5.40;;;30.30;87.20;;;;;;4392026;28;658115;-69
2021/09/26 12:29:28;;;;;;;8.43;5.20;;;30.20;85.70;;;;;;4427746;28;657793;-69
2021/09/26 12:32:16;;;;;;;8.82;5.10;;;30.00;86.50;;;;;;4439057;28;658322;-69
2021/09/26 12:35:07;;;;;;;8.18;5.40;;;29.60;85.70;;;;;;4416190;28;658020;-69
2021/09/26 12:37:56;;;;;;;7.40;5.13;;;29.80;87.60;;;;;;4411982;28;657719;-69
2021/09/26 12:40:52;;;;;;;7.87;4.97;;;29.60;86.70;;;;;;4416379;28;657588;-69
2021/09/26 12:43:47;;;;;;;8.93;4.88;;;29.80;86.70;;;;;;4416323;28;657969;-69
2021/09/26 12:46:36;;;;;;;7.23;4.93;;;30.20;86.40;;;;;;4388902;28;658366;-69
2021/09/26 12:49:24;;;;;;;7.65;4.60;;;30.80;86.10;;;;;;4415985;28;657730;-70
2021/09/26 12:52:12;;;;;;;11.38;5.07;;;30.40;84.20;;;;;;4434756;28;657754;-70
2021/09/26 12:55:19;;;;;;;8.20;4.70;;;30.60;84.00;;;;;;4411138;28;658773;-70
2021/09/26 12:58:08;;;;;;;7.70;4.30;;;31.10;84.80;;;;;;4411581;28;658009;-69
2021/09/26 13:00:57;;;;;;;11.15;4.85;;;31.50;83.90;;;;;;4411837;28;658608;-69
2021/09/26 13:03:51;;;;;;;7.03;4.70;;;31.00;80.30;;;;;;4410689;28;658903;-69
2021/09/26 13:06:39;;;;;;;8.23;5.07;;;31.10;80.80;;;;;;4415356;28;657858;-69
2021/09/26 13:09:28;;;;;;;8.18;4.55;;;30.90;80.10;;;;;;4434458;28;658583;-69
2021/09/26 13:12:24;;;;;;;6.97;4.73;;;31.30;79.80;;;;;;4411514;28;657842;-69
2021/09/26 13:15:16;;;;;;;8.63;4.75;;;31.20;76.40;;;;;;4411715;28;657868;-69
2021/09/26 13:18:30;;;;;;;10.63;4.88;;;30.60;76.80;;;;;;4413302;28;657843;-70
2021/09/26 13:21:30;;;;;;;8.17;4.67;;;30.30;78.60;;;;;;4391635;28;658939;-70
2021/09/26 13:24:25;;;;;;;6.70;4.65;;;29.60;80.60;;;;;;4396151;28;657315;-69
2021/09/26 13:27:15;;;;;;;5.85;4.25;;;29.20;80.60;;;;;;4401140;28;657814;-69
2021/09/26 13:30:06;;;;;;;13.48;4.68;;;28.40;82.80;;;;;;4415894;28;658026;-69
2021/09/26 13:32:56;;;;;;;9.38;4.78;;;28.10;85.60;;;;;;4413274;28;658865;-69
2021/09/26 13:35:44;;;;;;;8.48;4.53;;;28.10;87.30;;;;;;4411913;28;658025;-70
2021/09/26 13:38:31;;;;;;;7.35;4.60;;;27.80;86.60;;;;;;4430503;28;658047;-69
2021/09/26 13:41:38;;;;;;;6.78;4.57;;;27.70;87.80;;;;;;4408465;28;657644;-69
2021/09/26 13:44:25;;;;;;;7.85;5.00;;;28.20;88.30;;;;;;4383529;28;658458;-69
2021/09/26 13:47:13;;;;;;;6.97;5.13;;;27.90;88.10;;;;;;4409611;28;657625;-69
2021/09/26 13:50:05;;;;;;;7.82;4.70;;;27.90;86.60;;;;;;4431622;28;657272;-70
2021/09/26 13:52:53;;;;;;;7.95;5.63;;;28.20;86.80;;;;;;4391368;28;657170;-69
2021/09/26 13:55:40;;;;;;;8.68;4.88;;;29.10;87.90;;;;;;4427227;28;658554;-69
2021/09/26 13:58:31;;;;;;;5.22;4.20;;;30.00;84.90;;;;;;4409710;28;657549;-69
2021/09/26 14:01:19;;;;;;;6.65;4.65;;;30.50;83.60;;;;;;4409185;28;657835;-70
2021/09/26 14:04:06;;;;;;;7.18;4.40;;;31.80;81.10;;;;;;4428355;28;657895;-69
2021/09/26 14:06:55;;;;;;;11.93;4.40;;;32.90;75.20;;;;;;4409535;28;657561;-69
2021/09/26 14:09:43;;;;;;;5.57;4.00;;;33.50;73.20;;;;;;4408365;28;658935;-69
2021/09/26 14:12:31;;;;;;;7.07;4.60;;;34.00;72.10;;;;;;4431834;28;658291;-69
2021/09/26 14:15:18;;;;;;;9.60;4.05;;;34.90;66.90;;;;;;4409451;28;657444;-69
2021/09/26 14:18:07;;;;;;;5.80;3.92;;;35.60;63.40;;;;;;4428403;28;658294;-69
2021/09/26 14:20:54;;;;;;;6.90;3.80;;;36.40;59.70;;;;;;4409144;28;657681;-69